sensor_id;sensor_type;location;lat;lon;timestamp;temperature;humidity
59505;DHT22;45321;53.200;5.814;2024-01-30T00:01:52;7.10;87.90
59505;DHT22;45321;53.200;5.814;2024-01-30T00:04:18;7.10;87.90
59505;DHT22;45321;53.200;5.814;2024-01-30T00:06:44;7.00;88.10
59505;DHT22;45321;53.200;5.814;2024-01-30T00:09:09;7.00;88.30
59505;DHT22;45321;53.200;5.814;2024-01-30T00:11:36;7.00;88.30
59505;DHT22;45321;53.200;5.814;2024-01-30T00:14:03;6.90;88.40
59505;DHT22;45321;53.200;5.814;2024-01-30T00:16:28;7.00;88.50
59505;DHT22;45321;53.200;5.814;2024-01-30T00:18:55;7.00;88.30
59505;DHT22;45321;53.200;5.814;2024-01-30T00:21:21;7.00;88.30
59505;DHT22;45321;53.200;5.814;2024-01-30T00:23:47;7.00;88.40
59505;DHT22;45321;53.200;5.814;2024-01-30T00:26:12;7.00;88.30
59505;DHT22;45321;53.200;5.814;2024-01-30T00:28:43;7.00;88.30
59505;DHT22;45321;53.200;5.814;2024-01-30T00:31:09;7.00;88.50
59505;DHT22;45321;53.200;5.814;2024-01-30T00:33:38;7.00;88.60
59505;DHT22;45321;53.200;5.814;2024-01-30T00:36:05;7.00;88.50
59505;DHT22;45321;53.200;5.814;2024-01-30T00:38:32;7.00;88.60
59505;DHT22;45321;53.200;5.814;2024-01-30T00:40:58;7.00;88.70
59505;DHT22;45321;53.200;5.814;2024-01-30T00:43:24;7.10;88.60
59505;DHT22;45321;53.200;5.814;2024-01-30T00:45:50;7.10;88.50
59505;DHT22;45321;53.200;5.814;2024-01-30T00:48:18;7.20;88.40
59505;DHT22;45321;53.200;5.814;2024-01-30T00:50:43;7.20;88.50
59505;DHT22;45321;53.200;5.814;2024-01-30T00:53:09;7.30;88.40
59505;DHT22;45321;53.200;5.814;2024-01-30T00:55:35;7.20;88.30
59505;DHT22;45321;53.200;5.814;2024-01-30T00:58:01;7.20;88.40
59505;DHT22;45321;53.200;5.814;2024-01-30T01:00:27;7.10;88.40
59505;DHT22;45321;53.200;5.814;2024-01-30T01:03:01;7.20;88.50
59505;DHT22;45321;53.200;5.814;2024-01-30T01:05:26;7.10;88.40
59505;DHT22;45321;53.200;5.814;2024-01-30T01:07:52;7.10;88.30
59505;DHT22;45321;53.200;5.814;2024-01-30T01:10:19;7.00;88.30
59505;DHT22;45321;53.200;5.814;2024-01-30T01:12:45;7.00;88.30
59505;DHT22;45321;53.200;5.814;2024-01-30T01:15:11;7.00;88.40
59505;DHT22;45321;53.200;5.814;2024-01-30T01:17:40;7.00;88.50
59505;DHT22;45321;53.200;5.814;2024-01-30T01:20:06;7.00;88.50
59505;DHT22;45321;53.200;5.814;2024-01-30T01:22:32;7.00;88.60
59505;DHT22;45321;53.200;5.814;2024-01-30T01:25:00;7.00;88.60
59505;DHT22;45321;53.200;5.814;2024-01-30T01:27:25;7.00;88.70
59505;DHT22;45321;53.200;5.814;2024-01-30T01:29:52;7.00;88.70
59505;DHT22;45321;53.200;5.814;2024-01-30T01:32:18;7.00;88.80
59505;DHT22;45321;53.200;5.814;2024-01-30T01:34:44;7.00;88.70
59505;DHT22;45321;53.200;5.814;2024-01-30T01:37:10;7.00;88.60
59505;DHT22;45321;53.200;5.814;2024-01-30T01:39:35;7.00;88.80
59505;DHT22;45321;53.200;5.814;2024-01-30T01:42:01;7.00;88.90
59505;DHT22;45321;53.200;5.814;2024-01-30T01:44:27;6.90;88.90
59505;DHT22;45321;53.200;5.814;2024-01-30T01:46:54;6.90;88.90
59505;DHT22;45321;53.200;5.814;2024-01-30T01:49:20;6.90;88.80
59505;DHT22;45321;53.200;5.814;2024-01-30T01:51:47;6.90;88.90
59505;DHT22;45321;53.200;5.814;2024-01-30T01:54:14;6.90;89.00
59505;DHT22;45321;53.200;5.814;2024-01-30T01:56:42;6.90;89.20
59505;DHT22;45321;53.200;5.814;2024-01-30T01:59:08;7.00;89.10
59505;DHT22;45321;53.200;5.814;2024-01-30T02:01:37;7.00;89.30
59505;DHT22;45321;53.200;5.814;2024-01-30T02:04:04;7.00;89.30
59505;DHT22;45321;53.200;5.814;2024-01-30T02:06:29;7.00;89.30
59505;DHT22;45321;53.200;5.814;2024-01-30T02:08:55;7.10;89.50
59505;DHT22;45321;53.200;5.814;2024-01-30T02:11:22;7.00;89.60
59505;DHT22;45321;53.200;5.814;2024-01-30T02:13:49;7.10;89.50
59505;DHT22;45321;53.200;5.814;2024-01-30T02:16:15;7.10;89.50
59505;DHT22;45321;53.200;5.814;2024-01-30T02:18:42;7.10;89.40
59505;DHT22;45321;53.200;5.814;2024-01-30T02:21:12;7.10;89.50
59505;DHT22;45321;53.200;5.814;2024-01-30T02:23:38;7.10;89.50
59505;DHT22;45321;53.200;5.814;2024-01-30T02:26:05;7.10;89.60
59505;DHT22;45321;53.200;5.814;2024-01-30T02:28:30;7.20;89.70
59505;DHT22;45321;53.200;5.814;2024-01-30T02:30:56;7.20;89.80
59505;DHT22;45321;53.200;5.814;2024-01-30T02:33:22;7.30;89.80
59505;DHT22;45321;53.200;5.814;2024-01-30T02:35:48;7.30;89.80
59505;DHT22;45321;53.200;5.814;2024-01-30T02:38:15;7.30;89.70
59505;DHT22;45321;53.200;5.814;2024-01-30T02:40:40;7.30;89.90
59505;DHT22;45321;53.200;5.814;2024-01-30T02:43:06;7.30;89.90
59505;DHT22;45321;53.200;5.814;2024-01-30T02:45:32;7.30;90.00
59505;DHT22;45321;53.200;5.814;2024-01-30T02:47:58;7.30;90.10
59505;DHT22;45321;53.200;5.814;2024-01-30T02:50:23;7.30;89.90
59505;DHT22;45321;53.200;5.814;2024-01-30T02:52:49;7.30;89.80
59505;DHT22;45321;53.200;5.814;2024-01-30T02:55:15;7.30;89.90
59505;DHT22;45321;53.200;5.814;2024-01-30T02:57:43;7.30;90.00
59505;DHT22;45321;53.200;5.814;2024-01-30T03:00:11;7.40;90.00
59505;DHT22;45321;53.200;5.814;2024-01-30T03:02:37;7.40;89.90
59505;DHT22;45321;53.200;5.814;2024-01-30T03:05:03;7.30;89.80
59505;DHT22;45321;53.200;5.814;2024-01-30T03:07:29;7.40;89.90
59505;DHT22;45321;53.200;5.814;2024-01-30T03:09:55;7.40;89.90
59505;DHT22;45321;53.200;5.814;2024-01-30T03:12:21;7.40;89.90
59505;DHT22;45321;53.200;5.814;2024-01-30T03:14:47;7.30;89.90
59505;DHT22;45321;53.200;5.814;2024-01-30T03:17:13;7.30;89.80
59505;DHT22;45321;53.200;5.814;2024-01-30T03:19:39;7.30;89.80
59505;DHT22;45321;53.200;5.814;2024-01-30T03:22:04;7.30;89.90
59505;DHT22;45321;53.200;5.814;2024-01-30T03:24:30;7.30;89.90
59505;DHT22;45321;53.200;5.814;2024-01-30T03:26:56;7.30;89.90
59505;DHT22;45321;53.200;5.814;2024-01-30T03:29:22;7.30;89.80
59505;DHT22;45321;53.200;5.814;2024-01-30T03:31:48;7.20;89.80
59505;DHT22;45321;53.200;5.814;2024-01-30T03:34:13;7.20;89.90
59505;DHT22;45321;53.200;5.814;2024-01-30T03:36:39;7.20;89.90
59505;DHT22;45321;53.200;5.814;2024-01-30T03:39:05;7.10;89.90
59505;DHT22;45321;53.200;5.814;2024-01-30T03:41:32;7.10;90.00
59505;DHT22;45321;53.200;5.814;2024-01-30T03:43:57;7.10;90.00
59505;DHT22;45321;53.200;5.814;2024-01-30T03:46:23;7.10;90.20
59505;DHT22;45321;53.200;5.814;2024-01-30T03:48:50;7.10;90.10
59505;DHT22;45321;53.200;5.814;2024-01-30T03:51:15;7.10;90.00
59505;DHT22;45321;53.200;5.814;2024-01-30T03:53:42;7.10;89.90
59505;DHT22;45321;53.200;5.814;2024-01-30T03:56:08;7.20;90.00
59505;DHT22;45321;53.200;5.814;2024-01-30T03:58:34;7.20;90.00
59505;DHT22;45321;53.200;5.814;2024-01-30T04:01:01;7.20;90.00
59505;DHT22;45321;53.200;5.814;2024-01-30T04:03:27;7.30;90.10
59505;DHT22;45321;53.200;5.814;2024-01-30T04:05:53;7.30;90.00
59505;DHT22;45321;53.200;5.814;2024-01-30T04:08:19;7.30;90.00
59505;DHT22;45321;53.200;5.814;2024-01-30T04:10:45;7.30;90.10
59505;DHT22;45321;53.200;5.814;2024-01-30T04:13:11;7.30;90.20
59505;DHT22;45321;53.200;5.814;2024-01-30T04:15:37;7.30;90.30
59505;DHT22;45321;53.200;5.814;2024-01-30T04:18:03;7.30;90.30
59505;DHT22;45321;53.200;5.814;2024-01-30T04:20:29;7.30;90.30
59505;DHT22;45321;53.200;5.814;2024-01-30T04:22:55;7.30;90.20
59505;DHT22;45321;53.200;5.814;2024-01-30T04:25:21;7.30;90.20
59505;DHT22;45321;53.200;5.814;2024-01-30T04:27:47;7.30;90.30
59505;DHT22;45321;53.200;5.814;2024-01-30T04:30:13;7.30;90.30
59505;DHT22;45321;53.200;5.814;2024-01-30T04:32:39;7.40;90.20
59505;DHT22;45321;53.200;5.814;2024-01-30T04:35:05;7.40;90.30
59505;DHT22;45321;53.200;5.814;2024-01-30T04:37:31;7.40;90.10
59505;DHT22;45321;53.200;5.814;2024-01-30T04:39:57;7.40;90.20
59505;DHT22;45321;53.200;5.814;2024-01-30T04:42:22;7.40;90.30
59505;DHT22;45321;53.200;5.814;2024-01-30T04:44:48;7.40;90.20
59505;DHT22;45321;53.200;5.814;2024-01-30T04:47:14;7.40;90.40
59505;DHT22;45321;53.200;5.814;2024-01-30T04:49:40;7.40;90.40
59505;DHT22;45321;53.200;5.814;2024-01-30T04:52:07;7.40;90.30
59505;DHT22;45321;53.200;5.814;2024-01-30T04:54:33;7.40;90.20
59505;DHT22;45321;53.200;5.814;2024-01-30T04:56:58;7.50;90.30
59505;DHT22;45321;53.200;5.814;2024-01-30T04:59:24;7.40;90.30
59505;DHT22;45321;53.200;5.814;2024-01-30T05:01:50;7.40;90.30
59505;DHT22;45321;53.200;5.814;2024-01-30T05:04:16;7.50;90.20
59505;DHT22;45321;53.200;5.814;2024-01-30T05:06:42;7.50;90.10
59505;DHT22;45321;53.200;5.814;2024-01-30T05:09:08;7.50;90.20
59505;DHT22;45321;53.200;5.814;2024-01-30T05:11:41;7.50;90.30
59505;DHT22;45321;53.200;5.814;2024-01-30T05:14:07;7.50;90.20
59505;DHT22;45321;53.200;5.814;2024-01-30T05:16:34;7.50;90.30
59505;DHT22;45321;53.200;5.814;2024-01-30T05:19:00;7.50;90.30
59505;DHT22;45321;53.200;5.814;2024-01-30T05:21:25;7.50;90.30
59505;DHT22;45321;53.200;5.814;2024-01-30T05:23:51;7.50;90.20
59505;DHT22;45321;53.200;5.814;2024-01-30T05:26:17;7.50;90.20
59505;DHT22;45321;53.200;5.814;2024-01-30T05:28:43;7.50;90.20
59505;DHT22;45321;53.200;5.814;2024-01-30T05:31:12;7.50;90.20
59505;DHT22;45321;53.200;5.814;2024-01-30T05:33:37;7.50;90.20
59505;DHT22;45321;53.200;5.814;2024-01-30T05:36:03;7.50;90.20
59505;DHT22;45321;53.200;5.814;2024-01-30T05:38:29;7.50;90.20
59505;DHT22;45321;53.200;5.814;2024-01-30T05:40:58;7.50;90.20
59505;DHT22;45321;53.200;5.814;2024-01-30T05:43:24;7.50;90.20
59505;DHT22;45321;53.200;5.814;2024-01-30T05:45:51;7.50;90.30
59505;DHT22;45321;53.200;5.814;2024-01-30T05:48:18;7.50;90.30
59505;DHT22;45321;53.200;5.814;2024-01-30T05:50:43;7.60;90.30
59505;DHT22;45321;53.200;5.814;2024-01-30T05:53:10;7.60;90.30
59505;DHT22;45321;53.200;5.814;2024-01-30T05:55:36;7.50;90.30
59505;DHT22;45321;53.200;5.814;2024-01-30T05:58:03;7.60;90.30
59505;DHT22;45321;53.200;5.814;2024-01-30T06:00:29;7.60;90.30
59505;DHT22;45321;53.200;5.814;2024-01-30T06:02:55;7.60;90.30
59505;DHT22;45321;53.200;5.814;2024-01-30T06:05:21;7.60;90.30
59505;DHT22;45321;53.200;5.814;2024-01-30T06:07:46;7.60;90.20
59505;DHT22;45321;53.200;5.814;2024-01-30T06:10:12;7.70;90.30
59505;DHT22;45321;53.200;5.814;2024-01-30T06:12:38;7.70;90.20
59505;DHT22;45321;53.200;5.814;2024-01-30T06:15:04;7.60;90.10
59505;DHT22;45321;53.200;5.814;2024-01-30T06:17:30;7.70;90.10
59505;DHT22;45321;53.200;5.814;2024-01-30T06:19:56;7.70;90.10
59505;DHT22;45321;53.200;5.814;2024-01-30T06:22:21;7.70;90.20
59505;DHT22;45321;53.200;5.814;2024-01-30T06:24:47;7.70;90.10
59505;DHT22;45321;53.200;5.814;2024-01-30T06:27:16;7.80;90.10
59505;DHT22;45321;53.200;5.814;2024-01-30T06:29:43;7.80;90.00
59505;DHT22;45321;53.200;5.814;2024-01-30T06:32:09;7.80;90.00
59505;DHT22;45321;53.200;5.814;2024-01-30T06:34:35;7.70;90.10
59505;DHT22;45321;53.200;5.814;2024-01-30T06:37:01;7.70;90.20
59505;DHT22;45321;53.200;5.814;2024-01-30T06:39:27;7.80;90.20
59505;DHT22;45321;53.200;5.814;2024-01-30T06:41:53;7.70;90.20
59505;DHT22;45321;53.200;5.814;2024-01-30T06:44:18;7.80;90.10
59505;DHT22;45321;53.200;5.814;2024-01-30T06:46:44;7.80;90.10
59505;DHT22;45321;53.200;5.814;2024-01-30T06:49:10;7.80;90.10
59505;DHT22;45321;53.200;5.814;2024-01-30T06:51:36;7.80;90.10
59505;DHT22;45321;53.200;5.814;2024-01-30T06:54:02;7.80;90.10
59505;DHT22;45321;53.200;5.814;2024-01-30T06:56:28;7.80;90.10
59505;DHT22;45321;53.200;5.814;2024-01-30T06:58:54;7.80;90.10
59505;DHT22;45321;53.200;5.814;2024-01-30T07:01:19;7.80;90.10
59505;DHT22;45321;53.200;5.814;2024-01-30T07:03:46;7.80;90.10
59505;DHT22;45321;53.200;5.814;2024-01-30T07:06:12;7.80;90.00
59505;DHT22;45321;53.200;5.814;2024-01-30T07:08:38;7.80;90.00
59505;DHT22;45321;53.200;5.814;2024-01-30T07:11:07;7.80;90.10
59505;DHT22;45321;53.200;5.814;2024-01-30T07:13:34;7.80;90.10
59505;DHT22;45321;53.200;5.814;2024-01-30T07:16:00;7.80;90.10
59505;DHT22;45321;53.200;5.814;2024-01-30T07:18:26;7.80;90.00
59505;DHT22;45321;53.200;5.814;2024-01-30T07:20:51;7.90;90.00
59505;DHT22;45321;53.200;5.814;2024-01-30T07:23:17;7.90;90.10
59505;DHT22;45321;53.200;5.814;2024-01-30T07:25:44;7.90;90.10
59505;DHT22;45321;53.200;5.814;2024-01-30T07:28:10;8.00;90.10
59505;DHT22;45321;53.200;5.814;2024-01-30T07:30:37;8.00;90.10
59505;DHT22;45321;53.200;5.814;2024-01-30T07:33:03;8.00;90.10
59505;DHT22;45321;53.200;5.814;2024-01-30T07:35:29;8.10;90.10
59505;DHT22;45321;53.200;5.814;2024-01-30T07:37:55;8.20;90.20
59505;DHT22;45321;53.200;5.814;2024-01-30T07:40:20;8.20;90.10
59505;DHT22;45321;53.200;5.814;2024-01-30T07:42:47;8.20;90.00
59505;DHT22;45321;53.200;5.814;2024-01-30T07:45:13;8.30;90.00
59505;DHT22;45321;53.200;5.814;2024-01-30T07:47:39;8.30;90.00
59505;DHT22;45321;53.200;5.814;2024-01-30T07:50:05;8.30;90.00
59505;DHT22;45321;53.200;5.814;2024-01-30T07:52:31;8.30;90.00
59505;DHT22;45321;53.200;5.814;2024-01-30T07:54:57;8.40;89.90
59505;DHT22;45321;53.200;5.814;2024-01-30T07:57:23;8.30;89.90
59505;DHT22;45321;53.200;5.814;2024-01-30T07:59:49;8.30;89.90
59505;DHT22;45321;53.200;5.814;2024-01-30T08:02:14;8.40;89.90
59505;DHT22;45321;53.200;5.814;2024-01-30T08:04:40;8.40;89.90
59505;DHT22;45321;53.200;5.814;2024-01-30T08:07:06;8.50;89.90
59505;DHT22;45321;53.200;5.814;2024-01-30T08:09:32;8.50;90.00
59505;DHT22;45321;53.200;5.814;2024-01-30T08:11:57;8.60;90.00
59505;DHT22;45321;53.200;5.814;2024-01-30T08:14:23;8.60;90.00
59505;DHT22;45321;53.200;5.814;2024-01-30T08:16:49;8.70;90.00
59505;DHT22;45321;53.200;5.814;2024-01-30T08:19:15;8.80;90.10
59505;DHT22;45321;53.200;5.814;2024-01-30T08:21:40;8.80;90.10
59505;DHT22;45321;53.200;5.814;2024-01-30T08:24:06;8.90;90.10
59505;DHT22;45321;53.200;5.814;2024-01-30T08:26:33;8.90;90.20
59505;DHT22;45321;53.200;5.814;2024-01-30T08:28:59;9.00;90.20
59505;DHT22;45321;53.200;5.814;2024-01-30T08:31:24;9.10;90.30
59505;DHT22;45321;53.200;5.814;2024-01-30T08:33:50;9.10;90.20
59505;DHT22;45321;53.200;5.814;2024-01-30T08:36:17;9.20;90.20
59505;DHT22;45321;53.200;5.814;2024-01-30T08:38:42;9.30;90.20
59505;DHT22;45321;53.200;5.814;2024-01-30T08:41:08;9.30;90.20
59505;DHT22;45321;53.200;5.814;2024-01-30T08:43:34;9.40;90.20
59505;DHT22;45321;53.200;5.814;2024-01-30T08:46:00;9.50;90.20
59505;DHT22;45321;53.200;5.814;2024-01-30T08:48:26;9.60;90.20
59505;DHT22;45321;53.200;5.814;2024-01-30T08:50:52;9.70;90.20
59505;DHT22;45321;53.200;5.814;2024-01-30T08:53:18;9.70;90.20
59505;DHT22;45321;53.200;5.814;2024-01-30T08:55:44;9.80;90.10
59505;DHT22;45321;53.200;5.814;2024-01-30T08:58:10;9.80;90.00
59505;DHT22;45321;53.200;5.814;2024-01-30T09:00:36;9.80;90.00
59505;DHT22;45321;53.200;5.814;2024-01-30T09:03:02;9.80;89.90
59505;DHT22;45321;53.200;5.814;2024-01-30T09:05:28;9.90;89.80
59505;DHT22;45321;53.200;5.814;2024-01-30T09:07:54;9.80;89.80
59505;DHT22;45321;53.200;5.814;2024-01-30T09:10:20;9.90;89.70
59505;DHT22;45321;53.200;5.814;2024-01-30T09:12:46;9.90;89.60
59505;DHT22;45321;53.200;5.814;2024-01-30T09:15:12;9.90;89.60
59505;DHT22;45321;53.200;5.814;2024-01-30T09:17:38;10.00;89.50
59505;DHT22;45321;53.200;5.814;2024-01-30T09:20:04;10.00;89.40
59505;DHT22;45321;53.200;5.814;2024-01-30T09:22:30;10.00;89.40
59505;DHT22;45321;53.200;5.814;2024-01-30T09:24:57;10.00;89.40
59505;DHT22;45321;53.200;5.814;2024-01-30T09:27:23;10.10;89.30
59505;DHT22;45321;53.200;5.814;2024-01-30T09:29:49;10.10;89.30
59505;DHT22;45321;53.200;5.814;2024-01-30T09:32:15;10.10;89.20
59505;DHT22;45321;53.200;5.814;2024-01-30T09:34:40;10.10;89.20
59505;DHT22;45321;53.200;5.814;2024-01-30T09:37:07;10.00;89.10
59505;DHT22;45321;53.200;5.814;2024-01-30T09:39:33;10.10;89.10
59505;DHT22;45321;53.200;5.814;2024-01-30T09:44:38;10.10;89.10
59505;DHT22;45321;53.200;5.814;2024-01-30T09:47:04;10.00;89.10
59505;DHT22;45321;53.200;5.814;2024-01-30T09:49:34;10.00;89.10
59505;DHT22;45321;53.200;5.814;2024-01-30T09:52:03;10.00;89.20
59505;DHT22;45321;53.200;5.814;2024-01-30T09:54:31;10.10;89.20
59505;DHT22;45321;53.200;5.814;2024-01-30T09:56:57;10.10;89.10
59505;DHT22;45321;53.200;5.814;2024-01-30T09:59:23;10.10;89.10
59505;DHT22;45321;53.200;5.814;2024-01-30T10:01:50;10.20;89.00
59505;DHT22;45321;53.200;5.814;2024-01-30T10:04:16;10.20;88.90
59505;DHT22;45321;53.200;5.814;2024-01-30T10:06:42;10.20;88.80
59505;DHT22;45321;53.200;5.814;2024-01-30T10:09:08;10.10;88.80
59505;DHT22;45321;53.200;5.814;2024-01-30T10:11:36;10.10;88.70
59505;DHT22;45321;53.200;5.814;2024-01-30T10:14:01;10.10;88.70
59505;DHT22;45321;53.200;5.814;2024-01-30T10:16:27;10.00;88.70
59505;DHT22;45321;53.200;5.814;2024-01-30T10:18:53;10.00;88.70
59505;DHT22;45321;53.200;5.814;2024-01-30T10:21:25;10.00;88.80
59505;DHT22;45321;53.200;5.814;2024-01-30T10:23:50;9.90;88.80
59505;DHT22;45321;53.200;5.814;2024-01-30T10:26:16;9.90;88.90
59505;DHT22;45321;53.200;5.814;2024-01-30T10:28:43;9.90;89.00
59505;DHT22;45321;53.200;5.814;2024-01-30T10:31:08;9.80;89.10
59505;DHT22;45321;53.200;5.814;2024-01-30T10:33:34;9.80;89.20
59505;DHT22;45321;53.200;5.814;2024-01-30T10:36:01;9.80;89.30
59505;DHT22;45321;53.200;5.814;2024-01-30T10:38:32;9.80;89.40
59505;DHT22;45321;53.200;5.814;2024-01-30T10:40:59;9.70;89.50
59505;DHT22;45321;53.200;5.814;2024-01-30T10:43:32;9.70;89.60
59505;DHT22;45321;53.200;5.814;2024-01-30T10:46:18;9.70;89.70
59505;DHT22;45321;53.200;5.814;2024-01-30T10:48:57;9.70;89.80
59505;DHT22;45321;53.200;5.814;2024-01-30T10:51:26;9.70;89.80
59505;DHT22;45321;53.200;5.814;2024-01-30T10:53:52;9.60;89.80
59505;DHT22;45321;53.200;5.814;2024-01-30T10:56:22;9.60;89.80
59505;DHT22;45321;53.200;5.814;2024-01-30T10:58:52;9.60;89.80
59505;DHT22;45321;53.200;5.814;2024-01-30T11:01:22;9.50;89.80
59505;DHT22;45321;53.200;5.814;2024-01-30T11:03:52;9.50;89.70
59505;DHT22;45321;53.200;5.814;2024-01-30T11:06:19;9.50;89.70
59505;DHT22;45321;53.200;5.814;2024-01-30T11:09:00;9.50;89.70
59505;DHT22;45321;53.200;5.814;2024-01-30T11:11:28;9.40;89.80
59505;DHT22;45321;53.200;5.814;2024-01-30T11:13:54;9.40;90.00
59505;DHT22;45321;53.200;5.814;2024-01-30T11:16:20;9.40;90.10
59505;DHT22;45321;53.200;5.814;2024-01-30T11:18:50;9.40;90.40
59505;DHT22;45321;53.200;5.814;2024-01-30T11:21:17;9.30;90.50
59505;DHT22;45321;53.200;5.814;2024-01-30T11:23:42;9.40;90.60
59505;DHT22;45321;53.200;5.814;2024-01-30T11:26:10;9.40;90.70
59505;DHT22;45321;53.200;5.814;2024-01-30T11:28:37;9.30;90.90
59505;DHT22;45321;53.200;5.814;2024-01-30T11:31:06;9.30;90.90
59505;DHT22;45321;53.200;5.814;2024-01-30T11:33:32;9.30;91.00
59505;DHT22;45321;53.200;5.814;2024-01-30T11:36:00;9.30;91.20
59505;DHT22;45321;53.200;5.814;2024-01-30T11:38:26;9.30;91.20
59505;DHT22;45321;53.200;5.814;2024-01-30T11:40:55;9.30;91.40
59505;DHT22;45321;53.200;5.814;2024-01-30T11:43:24;9.30;91.30
59505;DHT22;45321;53.200;5.814;2024-01-30T11:45:50;9.30;91.40
59505;DHT22;45321;53.200;5.814;2024-01-30T11:48:16;9.30;91.40
59505;DHT22;45321;53.200;5.814;2024-01-30T11:50:43;9.30;91.40
59505;DHT22;45321;53.200;5.814;2024-01-30T11:53:11;9.30;91.40
59505;DHT22;45321;53.200;5.814;2024-01-30T11:55:38;9.30;91.50
59505;DHT22;45321;53.200;5.814;2024-01-30T11:58:04;9.30;91.60
59505;DHT22;45321;53.200;5.814;2024-01-30T12:00:30;9.20;91.60
59505;DHT22;45321;53.200;5.814;2024-01-30T12:02:59;9.30;91.70
59505;DHT22;45321;53.200;5.814;2024-01-30T12:05:26;9.30;91.70
59505;DHT22;45321;53.200;5.814;2024-01-30T12:07:52;9.30;91.70
59505;DHT22;45321;53.200;5.814;2024-01-30T12:10:18;9.30;91.70
59505;DHT22;45321;53.200;5.814;2024-01-30T12:12:47;9.30;91.80
59505;DHT22;45321;53.200;5.814;2024-01-30T12:15:13;9.30;91.80
59505;DHT22;45321;53.200;5.814;2024-01-30T12:17:39;9.30;91.80
59505;DHT22;45321;53.200;5.814;2024-01-30T12:20:07;9.30;92.00
59505;DHT22;45321;53.200;5.814;2024-01-30T12:22:37;9.30;91.90
59505;DHT22;45321;53.200;5.814;2024-01-30T12:25:10;9.30;92.00
59505;DHT22;45321;53.200;5.814;2024-01-30T12:27:37;9.30;92.10
59505;DHT22;45321;53.200;5.814;2024-01-30T12:30:09;9.30;92.10
59505;DHT22;45321;53.200;5.814;2024-01-30T12:32:36;9.30;92.20
59505;DHT22;45321;53.200;5.814;2024-01-30T12:35:02;9.30;92.20
59505;DHT22;45321;53.200;5.814;2024-01-30T12:37:29;9.30;92.30
59505;DHT22;45321;53.200;5.814;2024-01-30T12:39:56;9.30;92.30
59505;DHT22;45321;53.200;5.814;2024-01-30T12:42:22;9.30;92.30
59505;DHT22;45321;53.200;5.814;2024-01-30T12:44:48;9.30;92.30
59505;DHT22;45321;53.200;5.814;2024-01-30T12:47:15;9.30;92.30
59505;DHT22;45321;53.200;5.814;2024-01-30T12:49:44;9.30;92.20
59505;DHT22;45321;53.200;5.814;2024-01-30T12:52:15;9.30;92.20
59505;DHT22;45321;53.200;5.814;2024-01-30T12:54:41;9.30;92.20
59505;DHT22;45321;53.200;5.814;2024-01-30T12:57:07;9.20;92.10
59505;DHT22;45321;53.200;5.814;2024-01-30T12:59:33;9.20;92.20
59505;DHT22;45321;53.200;5.814;2024-01-30T13:02:00;9.20;92.20
59505;DHT22;45321;53.200;5.814;2024-01-30T13:04:27;9.10;92.30
59505;DHT22;45321;53.200;5.814;2024-01-30T13:06:53;9.10;92.30
59505;DHT22;45321;53.200;5.814;2024-01-30T13:09:19;9.10;92.40
59505;DHT22;45321;53.200;5.814;2024-01-30T13:11:45;9.10;92.50
59505;DHT22;45321;53.200;5.814;2024-01-30T13:14:11;9.10;92.60
59505;DHT22;45321;53.200;5.814;2024-01-30T13:16:36;9.10;92.60
59505;DHT22;45321;53.200;5.814;2024-01-30T13:19:02;9.10;92.80
59505;DHT22;45321;53.200;5.814;2024-01-30T13:21:29;9.10;92.80
59505;DHT22;45321;53.200;5.814;2024-01-30T13:23:55;9.20;92.80
59505;DHT22;45321;53.200;5.814;2024-01-30T13:26:21;9.10;92.90
59505;DHT22;45321;53.200;5.814;2024-01-30T13:28:47;9.10;93.00
59505;DHT22;45321;53.200;5.814;2024-01-30T13:31:14;9.20;93.00
59505;DHT22;45321;53.200;5.814;2024-01-30T13:33:40;9.20;93.00
59505;DHT22;45321;53.200;5.814;2024-01-30T13:36:07;9.20;93.10
59505;DHT22;45321;53.200;5.814;2024-01-30T13:38:33;9.10;93.00
59505;DHT22;45321;53.200;5.814;2024-01-30T13:41:00;9.10;93.10
59505;DHT22;45321;53.200;5.814;2024-01-30T13:43:26;9.10;93.10
59505;DHT22;45321;53.200;5.814;2024-01-30T13:45:52;9.10;93.10
59505;DHT22;45321;53.200;5.814;2024-01-30T13:48:17;9.10;93.20
59505;DHT22;45321;53.200;5.814;2024-01-30T13:50:43;9.10;93.20
59505;DHT22;45321;53.200;5.814;2024-01-30T13:53:10;9.10;93.20
59505;DHT22;45321;53.200;5.814;2024-01-30T13:55:35;9.00;93.20
59505;DHT22;45321;53.200;5.814;2024-01-30T13:58:01;9.00;93.40
59505;DHT22;45321;53.200;5.814;2024-01-30T14:00:27;9.00;93.40
59505;DHT22;45321;53.200;5.814;2024-01-30T14:02:53;9.00;93.50
59505;DHT22;45321;53.200;5.814;2024-01-30T14:05:23;9.00;93.40
59505;DHT22;45321;53.200;5.814;2024-01-30T14:07:50;9.00;93.50
59505;DHT22;45321;53.200;5.814;2024-01-30T14:10:16;9.00;93.50
59505;DHT22;45321;53.200;5.814;2024-01-30T14:12:43;9.00;93.60
59505;DHT22;45321;53.200;5.814;2024-01-30T14:15:13;8.90;93.60
59505;DHT22;45321;53.200;5.814;2024-01-30T14:17:40;8.90;93.60
59505;DHT22;45321;53.200;5.814;2024-01-30T14:20:07;8.90;93.60
59505;DHT22;45321;53.200;5.814;2024-01-30T14:22:36;9.00;93.70
59505;DHT22;45321;53.200;5.814;2024-01-30T14:25:02;8.90;93.60
59505;DHT22;45321;53.200;5.814;2024-01-30T14:27:31;8.90;93.60
59505;DHT22;45321;53.200;5.814;2024-01-30T14:29:57;8.90;93.60
59505;DHT22;45321;53.200;5.814;2024-01-30T14:32:26;8.90;93.60
59505;DHT22;45321;53.200;5.814;2024-01-30T14:34:51;8.80;93.60
59505;DHT22;45321;53.200;5.814;2024-01-30T14:37:21;8.80;93.60
59505;DHT22;45321;53.200;5.814;2024-01-30T14:39:47;8.80;93.60
59505;DHT22;45321;53.200;5.814;2024-01-30T14:42:14;8.80;93.60
59505;DHT22;45321;53.200;5.814;2024-01-30T14:44:40;8.80;93.60
59505;DHT22;45321;53.200;5.814;2024-01-30T14:47:05;8.80;93.60
59505;DHT22;45321;53.200;5.814;2024-01-30T14:49:31;8.80;93.60
59505;DHT22;45321;53.200;5.814;2024-01-30T14:52:00;8.80;93.60
59505;DHT22;45321;53.200;5.814;2024-01-30T14:54:26;8.80;93.60
59505;DHT22;45321;53.200;5.814;2024-01-30T14:56:53;8.80;93.60
59505;DHT22;45321;53.200;5.814;2024-01-30T14:59:18;8.80;93.60
59505;DHT22;45321;53.200;5.814;2024-01-30T15:01:44;8.80;93.70
59505;DHT22;45321;53.200;5.814;2024-01-30T15:04:10;8.80;93.70
59505;DHT22;45321;53.200;5.814;2024-01-30T15:06:36;8.70;93.60
59505;DHT22;45321;53.200;5.814;2024-01-30T15:09:02;8.70;93.70
59505;DHT22;45321;53.200;5.814;2024-01-30T15:11:28;8.70;93.70
59505;DHT22;45321;53.200;5.814;2024-01-30T15:13:54;8.70;93.60
59505;DHT22;45321;53.200;5.814;2024-01-30T15:16:20;8.60;93.60
59505;DHT22;45321;53.200;5.814;2024-01-30T15:18:46;8.60;93.60
59505;DHT22;45321;53.200;5.814;2024-01-30T15:21:11;8.50;93.50
59505;DHT22;45321;53.200;5.814;2024-01-30T15:23:37;8.50;93.50
59505;DHT22;45321;53.200;5.814;2024-01-30T15:26:03;8.50;93.40
59505;DHT22;45321;53.200;5.814;2024-01-30T15:28:39;8.50;93.40
59505;DHT22;45321;53.200;5.814;2024-01-30T15:31:05;8.40;93.30
59505;DHT22;45321;53.200;5.814;2024-01-30T15:33:31;8.40;93.30
59505;DHT22;45321;53.200;5.814;2024-01-30T15:35:58;8.30;93.30
59505;DHT22;45321;53.200;5.814;2024-01-30T15:38:24;8.30;93.30
59505;DHT22;45321;53.200;5.814;2024-01-30T15:40:50;8.30;93.30
59505;DHT22;45321;53.200;5.814;2024-01-30T15:43:15;8.30;93.30